Time;durP1;ratioP1;P1;durP2;ratioP2;P2;SDS_P1;SDS_P2;PMS_P1;PMS_P2;Temp;Humidity;BMP_temperature;BMP_pressure;BME280_temperature;BME280_humidity;BME280_pressure;Samples;Min_cycle;Max_cycle;Signal;HPM_P1;HPM_P2
2022/09/15 00:00:56;;;;;;;5.25;2.02;;;;;;;18.73;72.89;94770.78;1757218;82;21034;-69
2022/09/15 00:03:25;;;;;;;4.58;2.20;;;;;;;18.69;73.21;94772.77;1757183;82;21071;-70
2022/09/15 00:05:55;;;;;;;7.20;2.50;;;;;;;18.70;73.23;94777.17;1757433;82;21572;-71
2022/09/15 00:08:23;;;;;;;4.97;2.08;;;;;;;18.63;73.22;94778.52;1757270;82;20967;-69
2022/09/15 00:10:58;;;;;;;4.62;2.30;;;;;;;18.58;73.34;94780.62;1756870;82;21007;-70
2022/09/15 00:13:25;;;;;;;2.35;2.10;;;;;;;18.53;73.60;94778.72;1754840;81;21012;-69
2022/09/15 00:15:52;;;;;;;3.55;2.00;;;;;;;18.51;73.78;94785.96;1757204;82;21015;-69
2022/09/15 00:18:19;;;;;;;3.00;2.10;;;;;;;18.57;73.63;94781.55;1757264;82;21003;-69
2022/09/15 00:20:47;;;;;;;6.28;2.17;;;;;;;18.45;75.66;94784.54;1720948;83;21030;-70
2022/09/15 00:23:16;;;;;;;5.45;2.10;;;;;;;18.40;74.49;94783.11;1757180;82;21027;-70
2022/09/15 00:25:48;;;;;;;7.12;2.30;;;;;;;18.34;75.27;94785.22;1757035;82;21003;-69
2022/09/15 00:28:17;;;;;;;4.62;2.30;;;;;;;18.18;75.45;94780.91;1757296;81;20983;-69
2022/09/15 00:30:48;;;;;;;3.52;2.33;;;;;;;17.98;77.56;94781.63;1757334;81;21019;-69
2022/09/15 00:33:16;;;;;;;8.80;2.30;;;;;;;17.92;76.80;94784.20;1721083;83;21038;-69
2022/09/15 00:35:46;;;;;;;4.10;2.02;;;;;;;17.84;76.91;94783.81;1721043;83;21055;-69
2022/09/15 00:38:14;;;;;;;8.98;2.00;;;;;;;17.65;77.75;94778.67;1757218;82;20959;-69
2022/09/15 00:40:51;;;;;;;3.47;1.90;;;;;;;17.63;79.16;94785.90;1756978;82;21090;-69
2022/09/15 00:43:22;;;;;;;5.15;2.17;;;;;;;17.50;78.94;94776.91;1720943;83;21516;-69
2022/09/15 00:45:49;;;;;;;3.67;1.92;;;;;;;17.39;79.06;94777.55;1757094;82;21015;-69
2022/09/15 00:48:20;;;;;;;7.35;2.22;;;;;;;17.36;79.55;94777.73;1757218;81;21031;-69
2022/09/15 00:50:51;;;;;;;6.55;2.05;;;;;;;17.38;79.76;94775.81;1757336;81;21000;-69
2022/09/15 00:53:20;;;;;;;4.87;2.02;;;;;;;17.36;79.60;94773.73;1757261;81;21018;-69
2022/09/15 00:55:49;;;;;;;3.83;2.00;;;;;;;17.41;80.00;94772.10;1757274;82;21458;-70
2022/09/15 00:58:21;;;;;;;5.75;2.70;;;;;;;17.46;79.75;94772.25;1757087;82;21477;-69
2022/09/15 01:00:55;;;;;;;5.43;2.33;;;;;;;17.46;80.17;94773.58;1757377;82;21007;-70
2022/09/15 01:03:34;;;;;;;7.47;2.00;;;;;;;17.43;79.93;94772.40;1756248;81;20999;-70
2022/09/15 01:06:14;;;;;;;4.78;2.08;;;;;;;17.63;79.94;94774.38;1720075;83;21030;-69
2022/09/15 01:09:15;;;;;;;9.35;2.45;;;;;;;17.63;79.62;94777.89;1757006;82;21007;-70
2022/09/15 01:11:42;;;;;;;6.55;2.27;;;;;;;17.57;80.03;94772.09;1757181;82;21085;-69
2022/09/15 01:14:10;;;;;;;5.92;3.05;;;;;;;17.57;80.21;94772.09;1757109;82;20971;-69
2022/09/15 01:17:05;;;;;;;4.67;2.33;;;;;;;17.56;80.35;94773.02;1757145;82;21034;-69
2022/09/15 01:20:03;;;;;;;2.62;2.05;;;;;;;17.54;80.85;94761.12;1757348;82;21421;-69
2022/09/15 01:22:39;;;;;;;5.92;2.33;;;;;;;17.72;79.59;94755.16;1757256;82;21019;-69
2022/09/15 01:25:26;;;;;;;9.40;2.52;;;;;;;17.85;80.04;94758.84;1757767;82;20983;-69
2022/09/15 01:28:29;;;;;;;4.37;2.30;;;;;;;17.86;80.37;94748.53;1754964;82;21525;-69
2022/09/15 01:31:24;;;;;;;3.00;2.10;;;;;;;17.78;80.08;94737.92;1757366;82;21003;-69
2022/09/15 01:34:08;;;;;;;6.37;2.27;;;;;;;17.69;80.76;94724.19;1715241;83;21034;-69
2022/09/15 01:36:49;;;;;;;3.70;2.05;;;;;;;17.56;81.07;94728.52;1757184;82;20995;-69
2022/09/15 01:39:26;;;;;;;6.50;2.33;;;;;;;17.52;81.10;94732.34;1757126;81;21019;-70
2022/09/15 01:41:57;;;;;;;5.55;2.10;;;;;;;17.53;81.50;94718.90;1756964;82;21027;-70
2022/09/15 01:44:28;;;;;;;8.13;2.17;;;;;;;17.51;81.70;94718.16;1757151;81;21015;-69
2022/09/15 01:47:02;;;;;;;5.05;1.92;;;;;;;17.49;81.87;94717.38;1756894;82;22260;-69
2022/09/15 01:49:52;;;;;;;5.10;2.20;;;;;;;17.45;81.95;94710.98;1757350;81;21053;-69
2022/09/15 01:52:21;;;;;;;2.75;1.98;;;;;;;17.40;82.43;94700.59;1757259;81;21051;-69
2022/09/15 01:54:55;;;;;;;7.55;2.20;;;;;;;17.37;82.38;94692.77;1757148;82;21012;-69
2022/09/15 01:57:22;;;;;;;8.60;2.10;;;;;;;17.38;82.57;94682.96;1756907;82;21548;-69
2022/09/15 01:59:52;;;;;;;3.50;2.20;;;;;;;17.35;82.33;94673.34;1757192;82;21051;-69
2022/09/15 02:02:32;;;;;;;7.80;2.22;;;;;;;17.30;82.77;94677.61;1738239;82;21012;-69
2022/09/15 02:05:12;;;;;;;6.28;2.20;;;;;;;17.32;82.95;94668.67;1745552;82;21071;-69
2022/09/15 02:07:47;;;;;;;2.47;2.00;;;;;;;17.30;82.84;94664.27;1757043;81;21027;-69
2022/09/15 02:10:43;;;;;;;5.80;2.00;;;;;;;17.30;83.19;94662.09;1755379;81;20980;-69
2022/09/15 02:13:17;;;;;;;2.58;1.67;;;;;;;17.28;83.04;94674.17;1721048;83;21548;-69
2022/09/15 02:15:51;;;;;;;8.30;1.98;;;;;;;17.31;82.45;94657.13;1757109;82;21063;-69
2022/09/15 02:18:31;;;;;;;7.17;2.00;;;;;;;17.30;82.67;94659.42;1756997;82;20972;-69
2022/09/15 02:21:06;;;;;;;6.95;2.10;;;;;;;17.22;83.04;94650.55;1753504;81;21052;-70
2022/09/15 02:23:38;;;;;;;5.67;2.30;;;;;;;17.25;83.57;94653.52;1749222;82;21051;-70
2022/09/15 02:26:12;;;;;;;6.55;1.87;;;;;;;17.24;83.38;94661.98;1749160;81;20984;-69
2022/09/15 02:28:42;;;;;;;6.22;2.08;;;;;;;17.29;83.22;94669.72;1713131;84;21015;-69
2022/09/15 02:31:13;;;;;;;4.17;2.40;;;;;;;17.38;82.84;94666.48;1749092;81;20995;-69
2022/09/15 02:34:00;;;;;;;4.65;2.00;;;;;;;17.44;82.62;94655.47;1713362;83;21073;-69
2022/09/15 02:36:28;;;;;;;4.70;1.80;;;;;;;17.50;82.66;94644.41;1749176;81;21023;-69
2022/09/15 02:38:59;;;;;;;5.03;1.85;;;;;;;17.43;82.36;94631.06;1738527;82;21008;-69
2022/09/15 02:41:26;;;;;;;3.15;1.90;;;;;;;17.39;82.64;94628.70;1749086;81;21048;-69
2022/09/15 02:43:53;;;;;;;5.85;1.67;;;;;;;17.35;82.88;94646.67;1713146;83;21067;-69
2022/09/15 02:46:22;;;;;;;6.87;2.40;;;;;;;17.37;82.81;94642.59;1749140;81;21050;-69
2022/09/15 02:48:49;;;;;;;2.05;1.62;;;;;;;17.48;81.66;94637.45;1713275;84;21022;-69
2022/09/15 02:51:19;;;;;;;5.90;1.82;;;;;;;17.56;81.79;94642.31;1749148;81;20992;-69
2022/09/15 02:53:45;;;;;;;5.78;2.00;;;;;;;17.56;81.51;94629.84;1713174;83;21023;-69
2022/09/15 02:56:13;;;;;;;6.40;2.08;;;;;;;17.56;81.58;94634.32;1749215;82;21007;-69
2022/09/15 02:58:40;;;;;;;4.12;1.80;;;;;;;17.57;81.08;94632.05;1713167;83;21043;-70
2022/09/15 03:01:14;;;;;;;3.17;1.80;;;;;;;17.62;80.97;94621.47;1749034;82;21004;-70
2022/09/15 03:03:37;;;;;;;3.25;1.87;;;;;;;17.64;80.75;94627.58;1712673;84;21010;-69
2022/09/15 03:06:17;;;;;;;3.80;1.50;;;;;;;17.70;79.55;94609.84;1748858;82;21095;-69
2022/09/15 03:08:59;;;;;;;3.52;1.62;;;;;;;17.88;75.81;94608.34;1713260;84;21019;-69
2022/09/15 03:11:28;;;;;;;3.85;1.85;;;;;;;18.11;75.94;94605.55;1749321;82;21521;-69
2022/09/15 03:13:58;;;;;;;3.45;1.42;;;;;;;18.24;73.78;94607.80;1713364;83;21433;-69
2022/09/15 03:16:27;;;;;;;3.90;1.90;;;;;;;18.35;73.28;94599.97;1713451;84;21023;-69
2022/09/15 03:18:58;;;;;;;4.58;1.70;;;;;;;18.53;70.64;94603.73;1749311;81;20979;-69
2022/09/15 03:21:26;;;;;;;3.52;1.62;;;;;;;18.62;71.33;94592.91;1713181;83;21066;-69
2022/09/15 03:23:52;;;;;;;4.80;1.90;;;;;;;18.72;69.87;94589.55;1749249;81;21056;-69
2022/09/15 03:26:19;;;;;;;6.15;2.25;;;;;;;18.75;71.32;94580.48;1713466;84;21050;-69
2022/09/15 03:28:45;;;;;;;6.17;1.90;;;;;;;18.71;69.65;94566.45;1749089;81;21474;-69
2022/09/15 03:31:12;;;;;;;5.45;1.70;;;;;;;18.64;71.58;94566.95;1749031;81;20996;-69
2022/09/15 03:33:39;;;;;;;3.10;1.95;;;;;;;18.58;71.70;94566.41;1713402;83;21014;-69
2022/09/15 03:36:06;;;;;;;10.60;1.90;;;;;;;18.53;70.99;94542.30;1749079;82;21019;-70
2022/09/15 03:38:33;;;;;;;6.65;1.90;;;;;;;18.49;71.11;94554.98;1713489;84;21007;-70
2022/09/15 03:41:07;;;;;;;3.62;1.57;;;;;;;18.52;72.34;94570.84;1749112;81;21046;-70
2022/09/15 03:43:35;;;;;;;2.20;1.82;;;;;;;18.48;72.97;94569.31;1713332;83;21011;-70
2022/09/15 03:46:04;;;;;;;6.10;1.70;;;;;;;18.41;73.41;94576.01;1749316;81;21031;-69
2022/09/15 03:48:33;;;;;;;2.58;1.77;;;;;;;18.34;73.55;94585.38;1713439;84;21058;-69
2022/09/15 03:51:04;;;;;;;5.22;2.00;;;;;;;18.32;73.26;94589.50;1749246;82;21074;-70
2022/09/15 03:53:34;;;;;;;4.72;1.87;;;;;;;18.51;71.49;94584.28;1713396;84;21023;-69
2022/09/15 03:56:23;;;;;;;4.85;1.80;;;;;;;18.62;71.21;94572.39;1749288;82;20979;-69
2022/09/15 03:58:51;;;;;;;3.08;1.45;;;;;;;18.71;69.95;94577.62;1713336;84;21042;-69
2022/09/15 04:01:19;;;;;;;7.47;2.10;;;;;;;18.74;70.14;94570.23;1749273;81;20983;-69
2022/09/15 04:03:47;;;;;;;4.00;1.80;;;;;;;18.75;70.62;94585.81;1713448;84;21497;-69
2022/09/15 04:06:14;;;;;;;6.53;1.95;;;;;;;18.76;70.44;94587.55;1749150;82;21071;-69
2022/09/15 04:08:40;;;;;;;4.30;1.80;;;;;;;18.86;68.77;94577.95;1738750;82;21505;-69
2022/09/15 04:11:10;;;;;;;3.47;2.00;;;;;;;18.86;69.43;94573.09;1713400;84;21022;-69
2022/09/15 04:13:39;;;;;;;5.60;2.10;;;;;;;18.83;69.66;94588.86;1713315;84;21033;-69
2022/09/15 04:16:16;;;;;;;3.62;2.27;;;;;;;18.76;70.02;94595.08;1749201;82;21008;-69
2022/09/15 04:18:44;;;;;;;3.22;2.00;;;;;;;18.71;70.61;94585.63;1713156;84;20992;-69
2022/09/15 04:21:17;;;;;;;6.05;1.80;;;;;;;18.65;70.81;94559.30;1749178;81;21035;-70
2022/09/15 04:23:45;;;;;;;4.55;1.72;;;;;;;18.57;71.82;94563.83;1748121;81;21000;-69
2022/09/15 04:26:32;;;;;;;4.90;1.80;;;;;;;18.45;71.99;94563.33;1713440;83;21027;-69
2022/09/15 04:29:01;;;;;;;3.80;1.72;;;;;;;18.40;71.32;94555.61;1749232;82;21043;-69
2022/09/15 04:31:27;;;;;;;7.05;1.80;;;;;;;18.41;71.17;94558.65;1749101;82;20980;-70
2022/09/15 04:33:56;;;;;;;5.75;1.90;;;;;;;18.46;70.88;94561.88;1713366;83;20979;-69
2022/09/15 04:36:26;;;;;;;5.15;2.00;;;;;;;18.46;71.32;94571.22;1749187;81;21490;-69
2022/09/15 04:38:54;;;;;;;8.08;1.92;;;;;;;18.44;71.45;94578.95;1713393;84;21002;-69
2022/09/15 04:41:21;;;;;;;7.42;2.30;;;;;;;18.43;72.00;94583.94;1749190;81;21466;-69
2022/09/15 04:43:48;;;;;;;4.33;1.80;;;;;;;18.35;72.41;94587.95;1713401;83;21030;-69
2022/09/15 04:46:15;;;;;;;4.28;1.70;;;;;;;18.35;72.31;94585.77;1749189;82;21020;-69
2022/09/15 04:48:44;;;;;;;3.80;1.67;;;;;;;18.36;72.22;94587.47;1713489;84;20991;-68
2022/09/15 04:51:15;;;;;;;2.77;1.87;;;;;;;18.42;71.51;94588.42;1748906;82;21099;-68
2022/09/15 04:53:42;;;;;;;5.37;2.02;;;;;;;18.52;70.51;94589.53;1749329;81;20997;-68
2022/09/15 04:56:16;;;;;;;5.50;2.33;;;;;;;18.57;70.75;94591.42;1712955;84;21038;-69
2022/09/15 04:58:47;;;;;;;3.10;2.08;;;;;;;18.67;70.67;94599.69;1748476;82;21035;-69
2022/09/15 05:01:17;;;;;;;3.92;2.27;;;;;;;18.71;69.87;94608.34;1712772;84;21062;-69
2022/09/15 05:03:46;;;;;;;4.90;2.10;;;;;;;18.76;70.23;94612.94;1749052;81;21031;-70
2022/09/15 05:06:16;;;;;;;3.87;2.30;;;;;;;18.71;70.50;94614.54;1712563;83;21154;-72
2022/09/15 05:08:49;;;;;;;4.55;2.55;;;;;;;18.72;70.41;94616.73;1748967;82;21007;-70
2022/09/15 05:11:16;;;;;;;6.00;2.30;;;;;;;18.72;70.65;94619.40;1711943;84;21110;-73
2022/09/15 05:13:44;;;;;;;3.70;2.77;;;;;;;18.71;70.45;94625.72;1748301;82;21010;-71
2022/09/15 05:16:17;;;;;;;3.95;2.67;;;;;;;18.75;70.70;94614.77;1712273;84;21047;-73
2022/09/15 05:18:46;;;;;;;6.90;2.22;;;;;;;18.70;70.87;94615.52;1748854;82;20991;-70
2022/09/15 05:21:16;;;;;;;4.47;2.33;;;;;;;18.68;70.95;94601.39;1712713;83;21011;-68
2022/09/15 05:23:43;;;;;;;5.58;2.10;;;;;;;18.67;71.26;94606.38;1748646;82;21063;-72
2022/09/15 05:26:14;;;;;;;5.20;2.75;;;;;;;18.64;71.90;94610.55;1711974;84;21050;-70
2022/09/15 05:28:41;;;;;;;2.98;1.80;;;;;;;18.65;71.62;94630.11;1748863;82;20984;-71
2022/09/15 05:31:19;;;;;;;4.85;2.12;;;;;;;18.65;71.74;94628.77;1711210;83;20979;-73
2022/09/15 05:33:48;;;;;;;2.47;1.80;;;;;;;18.68;71.86;94635.27;1695551;83;21406;-73
2022/09/15 05:36:17;;;;;;;5.00;2.35;;;;;;;18.65;72.27;94632.33;1745318;80;21007;-72
2022/09/15 05:38:44;;;;;;;4.35;2.22;;;;;;;18.68;72.51;94643.29;1725471;82;21069;-70
2022/09/15 05:41:15;;;;;;;2.47;2.27;;;;;;;18.69;72.55;94647.18;1684638;85;21006;-72
2022/09/15 05:43:47;;;;;;;3.65;2.27;;;;;;;18.69;72.61;94644.51;1718888;83;21054;-68
2022/09/15 05:46:15;;;;;;;13.58;2.52;;;;;;;18.71;72.69;94639.08;1684102;85;21058;-74
2022/09/15 05:48:42;;;;;;;6.80;2.35;;;;;;;18.70;72.75;94621.34;1719019;83;21043;-67
2022/09/15 05:51:09;;;;;;;5.30;2.55;;;;;;;18.72;72.53;94631.42;1684574;85;21061;-73
2022/09/15 05:53:36;;;;;;;5.33;2.40;;;;;;;18.76;72.80;94631.64;1707131;84;20995;-71
2022/09/15 05:56:08;;;;;;;4.78;2.70;;;;;;;18.80;72.67;94632.69;1748328;82;21015;-72
2022/09/15 05:58:35;;;;;;;3.72;2.33;;;;;;;18.85;73.01;94638.19;1745520;82;20996;-76
2022/09/15 06:01:12;;;;;;;5.62;2.65;;;;;;;18.86;72.41;94622.55;1747450;82;21037;-72
2022/09/15 06:03:39;;;;;;;7.80;2.33;;;;;;;18.91;72.70;94633.30;1746070;82;21092;-67
2022/09/15 06:06:06;;;;;;;4.17;2.70;;;;;;;18.96;72.51;94637.86;1748559;81;20950;-71
2022/09/15 06:08:40;;;;;;;7.05;2.60;;;;;;;19.02;72.36;94659.30;1748379;81;21053;-71
2022/09/15 06:11:14;;;;;;;3.80;2.50;;;;;;;19.09;72.58;94651.26;1749215;81;21005;-71
2022/09/15 06:13:42;;;;;;;3.25;2.55;;;;;;;19.14;72.30;94657.64;1748822;81;21032;-70
2022/09/15 06:16:19;;;;;;;4.12;2.72;;;;;;;19.05;72.83;94654.23;1748408;82;21492;-73
2022/09/15 06:18:48;;;;;;;6.37;2.65;;;;;;;18.98;73.48;94653.32;1749165;82;21005;-71
2022/09/15 06:21:25;;;;;;;4.33;2.47;;;;;;;18.90;73.52;94653.44;1748787;82;21029;-72
2022/09/15 06:23:59;;;;;;;3.15;2.00;;;;;;;18.85;73.56;94659.56;1748128;81;21068;-68
2022/09/15 06:26:27;;;;;;;7.87;2.33;;;;;;;18.77;73.93;94665.41;1747655;81;21017;-70
2022/09/15 06:28:59;;;;;;;2.52;2.33;;;;;;;18.74;74.19;94672.27;1709066;84;21088;-76
2022/09/15 06:31:30;;;;;;;3.35;1.95;;;;;;;18.72;74.64;94679.52;1745916;82;21032;-73
2022/09/15 06:33:57;;;;;;;2.33;2.00;;;;;;;18.73;74.33;94678.58;1746630;82;21076;-69
2022/09/15 06:36:28;;;;;;;3.00;1.67;;;;;;;18.72;73.81;94681.74;1746933;82;20961;-66
2022/09/15 06:38:56;;;;;;;3.95;1.70;;;;;;;18.75;74.06;94677.56;1746925;82;21028;-69
2022/09/15 06:41:23;;;;;;;2.45;2.12;;;;;;;18.80;74.33;94680.79;1746715;82;20997;-65
2022/09/15 06:43:49;;;;;;;4.55;1.67;;;;;;;18.81;73.68;94686.98;1746933;82;21075;-68
2022/09/15 06:46:24;;;;;;;3.52;2.00;;;;;;;18.84;73.64;94708.16;1747745;82;21044;-69
2022/09/15 06:48:52;;;;;;;4.65;1.40;;;;;;;18.86;73.43;94718.28;1747872;82;21036;-69
2022/09/15 06:51:22;;;;;;;4.15;1.70;;;;;;;18.87;73.41;94728.00;1747973;82;20989;-68
2022/09/15 06:53:50;;;;;;;3.62;1.32;;;;;;;18.87;73.51;94745.37;1747363;82;21064;-75
2022/09/15 06:56:20;;;;;;;4.47;1.55;;;;;;;18.86;73.16;94761.52;1746841;82;21032;-72
2022/09/15 06:58:48;;;;;;;5.10;1.57;;;;;;;18.86;73.12;94765.05;1747107;82;21001;-69
2022/09/15 07:01:28;;;;;;;3.47;1.60;;;;;;;18.83;73.91;94759.91;1746948;82;21021;-72
2022/09/15 07:03:57;;;;;;;3.55;1.80;;;;;;;18.82;73.69;94762.18;1747252;82;21017;-73
2022/09/15 07:06:26;;;;;;;4.92;1.75;;;;;;;18.83;73.67;94758.58;1747360;82;21062;-67
2022/09/15 07:08:53;;;;;;;4.47;1.62;;;;;;;18.82;73.66;94758.17;1713429;84;21465;-68
2022/09/15 07:11:20;;;;;;;2.90;1.47;;;;;;;18.81;73.96;94753.31;1748961;81;20972;-65
2022/09/15 07:13:52;;;;;;;4.25;1.57;;;;;;;18.81;73.88;94747.11;1713529;84;21500;-65
2022/09/15 07:16:17;;;;;;;3.55;1.57;;;;;;;18.82;74.58;94766.19;1712425;83;21023;-65
2022/09/15 07:18:45;;;;;;;1.60;1.50;;;;;;;18.87;74.10;94771.25;1749029;82;21075;-65
2022/09/15 07:21:17;;;;;;;2.00;1.65;;;;;;;18.91;74.34;94772.30;1713534;83;21035;-65
2022/09/15 07:23:43;;;;;;;2.65;1.42;;;;;;;19.03;74.51;94767.49;1749302;82;21031;-66
2022/09/15 07:26:23;;;;;;;3.33;1.45;;;;;;;19.15;74.56;94769.86;1713309;83;21049;-65
2022/09/15 07:28:57;;;;;;;2.12;1.55;;;;;;;19.26;74.51;94770.48;1749583;82;21564;-65
2022/09/15 07:31:29;;;;;;;3.70;1.40;;;;;;;19.46;74.52;94773.17;1684997;84;20985;-66
2022/09/15 07:33:58;;;;;;;4.35;1.30;;;;;;;19.64;73.60;94772.42;1745966;82;21552;-73
2022/09/15 07:36:26;;;;;;;2.35;1.20;;;;;;;19.79;73.73;94787.47;1746133;82;21536;-67
2022/09/15 07:38:52;;;;;;;1.85;1.25;;;;;;;19.85;72.87;94779.02;1746976;82;21484;-71
2022/09/15 07:41:24;;;;;;;4.80;1.40;;;;;;;19.82;71.83;94782.39;1746706;82;21026;-69
2022/09/15 07:43:54;;;;;;;1.65;1.30;;;;;;;19.77;72.81;94780.51;1746537;82;21028;-67
2022/09/15 07:46:24;;;;;;;2.65;1.27;;;;;;;19.60;73.38;94794.98;1746778;82;21022;-67
2022/09/15 07:48:57;;;;;;;3.05;1.35;;;;;;;19.61;73.44;94808.77;1746815;82;21018;-67
2022/09/15 07:51:23;;;;;;;2.55;1.20;;;;;;;19.65;74.24;94800.89;1725752;82;20998;-70
2022/09/15 07:53:50;;;;;;;3.00;1.77;;;;;;;19.74;74.03;94802.98;1746366;82;21574;-70
2022/09/15 07:56:18;;;;;;;1.57;1.10;;;;;;;19.72;74.52;94796.88;1746127;82;21019;-72
2022/09/15 07:58:45;;;;;;;2.33;1.30;;;;;;;19.67;75.49;94801.19;1745898;82;21042;-71
2022/09/15 08:01:13;;;;;;;5.37;1.47;;;;;;;19.66;75.68;94801.28;1746523;82;21027;-70
2022/09/15 08:03:47;;;;;;;4.55;1.22;;;;;;;19.70;75.22;94807.30;1746140;82;21110;-81
2022/09/15 08:06:21;;;;;;;4.33;1.30;;;;;;;19.69;75.63;94813.63;1746722;82;21010;-79
2022/09/15 08:08:49;;;;;;;2.70;1.10;;;;;;;19.75;75.77;94822.09;1745917;82;21575;-73
2022/09/15 08:11:19;;;;;;;1.80;0.93;;;;;;;19.76;76.30;94825.16;1746539;82;21109;-72
2022/09/15 08:13:48;;;;;;;1.02;0.80;;;;;;;19.96;76.75;94817.58;1746227;82;21022;-74
2022/09/15 08:16:20;;;;;;;1.75;0.90;;;;;;;20.09;75.20;94812.64;1746406;82;21015;-70
2022/09/15 08:18:48;;;;;;;1.87;0.77;;;;;;;20.18;74.73;94817.84;1746838;82;21053;-72
2022/09/15 08:21:21;;;;;;;1.22;0.72;;;;;;;20.26;74.15;94806.59;1746729;82;21063;-71
2022/09/15 08:23:57;;;;;;;0.98;0.60;;;;;;;20.26;73.83;94803.91;1751081;82;20983;-68
2022/09/15 08:26:26;;;;;;;0.70;0.70;;;;;;;20.34;74.66;94813.64;1752211;82;21030;-71
2022/09/15 08:28:52;;;;;;;0.60;0.60;;;;;;;20.38;74.48;94814.27;1752386;82;21003;-69
2022/09/15 08:31:19;;;;;;;1.67;0.80;;;;;;;20.33;73.51;94814.58;1752051;82;21019;-75
2022/09/15 08:33:51;;;;;;;1.00;0.75;;;;;;;20.18;73.12;94818.33;1753209;81;21044;-76
2022/09/15 08:36:18;;;;;;;2.07;0.90;;;;;;;20.00;74.13;94827.98;1760680;81;21043;-65
2022/09/15 08:38:46;;;;;;;0.70;0.70;;;;;;;19.89;74.75;94824.70;1761572;81;21521;-65
2022/09/15 08:41:23;;;;;;;0.93;0.80;;;;;;;19.91;74.56;94834.44;1762489;81;21039;-65
2022/09/15 08:44:07;;;;;;;1.22;0.70;;;;;;;19.82;74.65;94834.59;1762497;81;21004;-65
2022/09/15 08:46:50;;;;;;;2.35;0.80;;;;;;;19.77;74.31;94840.73;1762695;81;21490;-68
2022/09/15 08:49:46;;;;;;;0.90;0.80;;;;;;;19.78;74.82;94846.00;1761591;81;21548;-71
2022/09/15 08:52:24;;;;;;;1.37;0.80;;;;;;;19.95;75.45;94853.36;1762486;81;20974;-70
2022/09/15 08:54:52;;;;;;;1.47;0.70;;;;;;;20.17;73.87;94852.29;1761560;81;21135;-65
2022/09/15 08:57:23;;;;;;;0.82;0.75;;;;;;;20.35;74.38;94850.66;1755115;81;21037;-68
2022/09/15 08:59:49;;;;;;;1.17;0.70;;;;;;;20.42;73.58;94846.59;1747252;81;21072;-65
2022/09/15 09:02:39;;;;;;;2.02;0.80;;;;;;;20.55;73.63;94854.18;1742236;82;21014;-65
2022/09/15 09:05:52;;;;;;;2.37;0.62;;;;;;;20.70;72.34;94868.34;1741317;82;21079;-64
2022/09/15 09:08:36;;;;;;;0.75;0.57;;;;;;;20.72;70.98;94871.78;1742062;82;21058;-64
2022/09/15 09:11:44;;;;;;;2.17;0.98;;;;;;;20.66;70.64;94882.45;1741625;82;21062;-64
2022/09/15 09:14:30;;;;;;;1.17;0.80;;;;;;;20.56;70.76;94869.28;1742324;82;21576;-64
2022/09/15 09:17:11;;;;;;;2.25;0.82;;;;;;;20.51;70.71;94874.95;1740972;82;21018;-64
2022/09/15 09:19:59;;;;;;;1.30;0.70;;;;;;;20.58;70.61;94886.13;1739019;82;21061;-64
2022/09/15 09:22:33;;;;;;;2.35;1.00;;;;;;;20.71;70.62;94877.63;1744275;81;21488;-64
2022/09/15 09:25:01;;;;;;;1.50;0.80;;;;;;;20.69;70.24;94884.06;1726351;83;21058;-64
2022/09/15 09:27:33;;;;;;;1.17;0.90;;;;;;;20.62;71.14;94888.13;1726508;83;21453;-64
2022/09/15 09:30:14;;;;;;;2.33;0.98;;;;;;;20.53;71.84;94862.28;1726420;83;21057;-64
2022/09/15 09:32:56;;;;;;;1.82;0.90;;;;;;;20.58;72.36;94860.66;1726260;83;21058;-64
2022/09/15 09:35:37;;;;;;;0.98;0.90;;;;;;;20.72;72.23;94847.65;1699691;83;20991;-64
2022/09/15 09:38:03;;;;;;;1.30;1.00;;;;;;;20.99;72.71;94845.30;1726608;83;20990;-64
2022/09/15 09:40:31;;;;;;;1.60;1.07;;;;;;;21.16;72.11;94855.19;1726026;83;21042;-64
2022/09/15 09:42:59;;;;;;;2.47;0.90;;;;;;;21.35;72.46;94861.92;1724004;83;21485;-65
2022/09/15 09:45:26;;;;;;;4.60;0.90;;;;;;;21.56;70.20;94852.80;1726069;83;20986;-65
2022/09/15 09:48:04;;;;;;;1.62;0.70;;;;;;;21.67;69.00;94858.72;1726408;83;20986;-65
2022/09/15 09:50:43;;;;;;;2.05;0.98;;;;;;;21.75;69.30;94855.86;1726118;83;21038;-64
2022/09/15 09:53:31;;;;;;;2.17;1.27;;;;;;;22.10;69.53;94846.09;1725259;83;21081;-65
2022/09/15 09:56:23;;;;;;;2.10;1.30;;;;;;;22.23;67.44;94847.78;1725204;83;21073;-65
2022/09/15 09:58:51;;;;;;;2.00;1.12;;;;;;;22.31;66.83;94832.91;1725983;83;21101;-64
2022/09/15 10:01:21;;;;;;;1.42;1.05;;;;;;;22.50;67.31;94832.31;1725929;83;21050;-64
2022/09/15 10:03:48;;;;;;;2.37;0.80;;;;;;;22.71;64.93;94824.42;1726562;83;21021;-65
2022/09/15 10:06:23;;;;;;;1.60;1.10;;;;;;;22.97;64.48;94825.92;1726202;83;21564;-64
2022/09/15 10:09:04;;;;;;;3.65;1.05;;;;;;;22.79;61.48;94813.91;1725906;83;21019;-64
2022/09/15 10:11:52;;;;;;;4.05;1.00;;;;;;;22.64;61.52;94810.59;1726254;83;21042;-64
2022/09/15 10:14:30;;;;;;;3.10;1.02;;;;;;;22.58;61.76;94807.91;1726349;83;21528;-64
2022/09/15 10:17:04;;;;;;;1.00;0.88;;;;;;;22.47;62.15;94815.45;1726340;83;21453;-64
2022/09/15 10:19:45;;;;;;;2.05;0.90;;;;;;;22.43;62.24;94800.55;1726453;83;21053;-65
2022/09/15 10:22:30;;;;;;;2.55;1.00;;;;;;;22.51;63.45;94793.23;1726402;83;21018;-65
2022/09/15 10:25:25;;;;;;;1.85;1.27;;;;;;;22.66;63.95;94798.74;1725061;83;21066;-65
2022/09/15 10:28:15;;;;;;;3.77;1.22;;;;;;;22.80;64.30;94810.23;1726312;83;20979;-65
2022/09/15 10:31:15;;;;;;;2.67;1.10;;;;;;;22.92;64.22;94796.30;1726101;83;21034;-64
2022/09/15 10:33:46;;;;;;;5.10;1.10;;;;;;;22.97;63.48;94792.30;1726251;83;21050;-64
2022/09/15 10:36:21;;;;;;;4.28;1.12;;;;;;;23.10;64.39;94791.66;1726545;83;21006;-64
2022/09/15 10:38:58;;;;;;;2.60;1.00;;;;;;;23.27;64.41;94786.27;1726383;83;21002;-65
2022/09/15 10:41:31;;;;;;;2.83;1.40;;;;;;;23.47;64.28;94781.09;1725205;83;21006;-65
2022/09/15 10:44:27;;;;;;;2.02;1.07;;;;;;;23.80;63.97;94776.11;1726309;83;21074;-65
2022/09/15 10:47:29;;;;;;;2.08;0.90;;;;;;;24.20;64.22;94775.42;1726142;83;21026;-65
2022/09/15 10:50:10;;;;;;;1.65;0.75;;;;;;;24.34;58.96;94778.27;1726144;83;21026;-64
2022/09/15 10:53:09;;;;;;;2.05;0.90;;;;;;;24.24;58.59;94770.15;1726512;83;20998;-65
2022/09/15 10:55:50;;;;;;;3.37;1.00;;;;;;;24.44;58.80;94777.84;1726344;83;21053;-65
2022/09/15 10:59:03;;;;;;;1.87;0.70;;;;;;;24.42;56.90;94782.53;1726408;83;21511;-65
2022/09/15 11:01:57;;;;;;;2.92;0.80;;;;;;;24.32;57.60;94779.77;1724001;83;21034;-65
2022/09/15 11:04:50;;;;;;;1.72;0.80;;;;;;;24.53;56.88;94774.89;1726394;83;21536;-65
2022/09/15 11:07:56;;;;;;;3.87;1.10;;;;;;;24.47;56.78;94770.89;1726538;83;21054;-65
2022/09/15 11:10:42;;;;;;;2.98;1.05;;;;;;;24.73;56.37;94773.15;1726399;83;21050;-64
2022/09/15 11:13:29;;;;;;;2.30;0.98;;;;;;;25.12;57.31;94777.34;1726332;83;21019;-64
2022/09/15 11:16:07;;;;;;;2.52;1.05;;;;;;;25.16;55.46;94768.88;1726401;83;21058;-65
2022/09/15 11:19:08;;;;;;;1.67;0.72;;;;;;;24.96;56.60;94771.96;1723664;83;21019;-65
2022/09/15 11:21:49;;;;;;;4.03;0.98;;;;;;;24.85;57.31;94776.12;1712283;84;21023;-64
2022/09/15 11:24:21;;;;;;;1.80;0.85;;;;;;;24.76;57.60;94772.87;1704161;83;21068;-65
2022/09/15 11:26:53;;;;;;;3.60;0.88;;;;;;;24.60;55.66;94766.63;1691396;85;21012;-65
2022/09/15 11:29:59;;;;;;;3.60;0.90;;;;;;;24.70;56.83;94771.58;1692017;85;21016;-65
2022/09/15 11:32:44;;;;;;;1.98;1.00;;;;;;;24.78;57.03;94770.90;1691623;84;21035;-65
2022/09/15 11:35:44;;;;;;;3.85;0.90;;;;;;;25.00;56.83;94775.27;1691980;84;21556;-65
2022/09/15 11:38:27;;;;;;;3.25;1.10;;;;;;;24.90;55.48;94773.02;1691893;84;21009;-65
2022/09/15 11:41:17;;;;;;;1.98;0.80;;;;;;;24.63;55.08;94772.25;1691497;85;21072;-64
2022/09/15 11:44:09;;;;;;;2.02;0.90;;;;;;;24.50;54.34;94773.31;1715093;84;21043;-65
2022/09/15 11:47:03;;;;;;;4.60;0.93;;;;;;;24.23;53.93;94769.77;1770571;81;21488;-65
2022/09/15 11:49:38;;;;;;;1.55;0.80;;;;;;;24.43;55.63;94776.14;1773171;81;21047;-65
2022/09/15 11:52:38;;;;;;;2.10;0.90;;;;;;;24.93;52.47;94768.19;1773136;81;21011;-65
2022/09/15 11:55:37;;;;;;;3.50;1.20;;;;;;;25.58;51.07;94769.20;1773241;81;21038;-65
2022/09/15 11:58:46;;;;;;;3.42;1.00;;;;;;;26.44;53.22;94755.83;1773214;81;20999;-65
2022/09/15 12:01:23;;;;;;;1.02;0.90;;;;;;;27.13;48.07;94748.69;1772768;80;21066;-65
2022/09/15 12:04:10;;;;;;;1.17;0.95;;;;;;;27.51;48.88;94756.28;1771872;81;21015;-65
2022/09/15 12:07:03;;;;;;;3.02;1.02;;;;;;;27.56;47.69;94758.02;1759607;81;21497;-65
2022/09/15 12:09:29;;;;;;;2.75;0.90;;;;;;;27.28;48.00;94759.91;1771372;81;21004;-65